createdAt,value
2018-04-12T00:00:43.769Z,964.05
2018-04-12T00:01:43.697Z,964.05
2018-04-12T00:02:43.627Z,964.00
2018-04-12T00:03:43.543Z,963.98
2018-04-12T00:04:43.470Z,963.98
2018-04-12T00:05:43.390Z,963.96
2018-04-12T00:06:43.319Z,963.98
2018-04-12T00:07:43.238Z,963.92
2018-04-12T00:08:43.163Z,963.95
2018-04-12T00:09:43.089Z,963.97
2018-04-12T00:10:43.012Z,963.97
2018-04-12T00:11:42.946Z,963.97
2018-04-12T00:12:42.860Z,963.93
2018-04-12T00:13:42.786Z,963.94
2018-04-12T00:14:42.708Z,963.92
2018-04-12T00:15:42.646Z,963.85
2018-04-12T00:16:42.558Z,963.85
2018-04-12T00:17:42.481Z,963.83
2018-04-12T00:18:42.405Z,963.81
2018-04-12T00:19:42.331Z,963.80
2018-04-12T00:20:42.254Z,963.78
2018-04-12T00:21:42.182Z,963.71
2018-04-12T00:22:42.104Z,963.73
2018-04-12T00:23:42.027Z,963.67
2018-04-12T00:24:41.949Z,963.63
2018-04-12T00:25:41.872Z,963.66
2018-04-12T00:26:41.801Z,963.62
2018-04-12T00:27:41.721Z,963.63
2018-04-12T00:28:41.645Z,963.60
2018-04-12T00:29:41.572Z,963.61
2018-04-12T00:30:41.500Z,963.59
2018-04-12T00:31:41.417Z,963.57
2018-04-12T00:32:41.344Z,963.58
2018-04-12T00:33:41.310Z,963.57
2018-04-12T00:34:41.197Z,963.55
2018-04-12T00:35:41.112Z,963.51
2018-04-12T00:36:41.039Z,963.54
2018-04-12T00:37:40.965Z,963.49
2018-04-12T00:38:40.885Z,963.53
2018-04-12T00:39:40.811Z,963.53
2018-04-12T00:40:40.734Z,963.53
2018-04-12T00:41:40.663Z,963.48
2018-04-12T00:42:40.581Z,963.55
2018-04-12T00:43:40.511Z,963.51
2018-04-12T00:44:40.427Z,963.53
2018-04-12T00:45:40.354Z,963.51
2018-04-12T00:46:40.278Z,963.55
2018-04-12T00:47:40.203Z,963.52
2018-04-12T00:48:40.125Z,963.54
2018-04-12T00:49:40.050Z,963.56
2018-04-12T00:50:39.973Z,963.56
2018-04-12T00:51:39.900Z,963.56
2018-04-12T00:52:39.820Z,963.58
2018-04-12T00:53:39.757Z,963.55
2018-04-12T00:54:39.674Z,963.56
2018-04-12T00:55:39.592Z,963.56
2018-04-12T00:56:39.513Z,963.55
2018-04-12T00:57:39.441Z,963.54
2018-04-12T00:58:39.366Z,963.53
2018-04-12T00:59:39.291Z,963.50
2018-04-12T01:00:39.212Z,963.50
2018-04-12T01:01:39.136Z,963.47
2018-04-12T01:02:39.061Z,963.47
2018-04-12T01:03:38.992Z,963.48
2018-04-12T01:04:38.919Z,963.44
2018-04-12T01:05:38.834Z,963.44
2018-04-12T01:06:38.756Z,963.43
2018-04-12T01:07:38.682Z,963.47
2018-04-12T01:08:38.605Z,963.48
2018-04-12T01:09:38.545Z,963.51
2018-04-12T01:10:38.454Z,963.46
2018-04-12T01:11:38.385Z,963.51
2018-04-12T01:12:38.299Z,963.51
2018-04-12T01:13:38.224Z,963.46
2018-04-12T01:14:38.147Z,963.47
2018-04-12T01:15:38.076Z,963.48
2018-04-12T01:16:37.994Z,963.46
2018-04-12T01:17:37.918Z,963.43
2018-04-12T01:18:37.842Z,963.43
2018-04-12T01:19:37.770Z,963.44
2018-04-12T01:20:37.701Z,963.42
2018-04-12T01:21:37.616Z,963.43
2018-04-12T01:22:37.538Z,963.46
2018-04-12T01:23:37.462Z,963.48
2018-04-12T01:24:37.387Z,963.48
2018-04-12T01:25:37.318Z,963.46
2018-04-12T01:26:37.230Z,963.50
2018-04-12T01:27:37.155Z,963.48
2018-04-12T01:28:37.077Z,963.43
2018-04-12T01:29:37.003Z,963.39
2018-04-12T01:30:36.927Z,963.40
2018-04-12T01:31:36.853Z,963.42
2018-04-12T01:32:36.775Z,963.39
2018-04-12T01:33:36.698Z,963.38
2018-04-12T01:34:36.641Z,963.40
2018-04-12T01:35:36.546Z,963.43
2018-04-12T01:36:36.474Z,963.46
2018-04-12T01:37:36.395Z,963.46
2018-04-12T01:38:36.323Z,963.47
2018-04-12T01:39:36.240Z,963.42
2018-04-12T01:40:36.166Z,963.43
2018-04-12T01:41:36.088Z,963.45
2018-04-12T01:42:36.011Z,963.43
2018-04-12T01:43:35.985Z,963.42
2018-04-12T01:44:35.861Z,963.40
2018-04-12T01:45:35.783Z,963.37
2018-04-12T01:46:35.706Z,963.37
2018-04-12T01:47:35.628Z,963.36
2018-04-12T01:48:35.553Z,963.32
2018-04-12T01:49:35.474Z,963.27
2018-04-12T01:50:35.398Z,963.23
2018-04-12T01:51:35.324Z,963.26
2018-04-12T01:52:35.246Z,963.25
2018-04-12T01:53:35.189Z,963.22
2018-04-12T01:54:35.093Z,963.26
2018-04-12T01:55:35.021Z,963.26
2018-04-12T01:56:34.942Z,963.27
2018-04-12T01:57:34.864Z,963.24
2018-04-12T01:58:34.787Z,963.28
2018-04-12T01:59:34.711Z,963.27
2018-04-12T02:00:34.637Z,963.26
2018-04-12T02:01:34.561Z,963.27
2018-04-12T02:02:34.486Z,963.23
2018-04-12T02:03:34.408Z,963.24
2018-04-12T02:04:34.334Z,963.23
2018-04-12T02:05:34.253Z,963.21
2018-04-12T02:06:34.188Z,963.20
2018-04-12T02:07:34.108Z,963.21
2018-04-12T02:08:34.043Z,963.20
2018-04-12T02:09:33.956Z,963.19
2018-04-12T02:10:33.875Z,963.14
2018-04-12T02:11:33.796Z,963.10
2018-04-12T02:12:33.722Z,963.10
2018-04-12T02:13:33.646Z,963.05
2018-04-12T02:14:33.567Z,963.06
2018-04-12T02:15:33.503Z,963.06
2018-04-12T02:16:33.415Z,963.06
2018-04-12T02:17:33.342Z,963.01
2018-04-12T02:18:33.263Z,962.98
2018-04-12T02:19:33.192Z,963.01
2018-04-12T02:20:33.115Z,963.03
2018-04-12T02:21:33.034Z,962.97
2018-04-12T02:22:32.960Z,962.99
2018-04-12T02:23:32.884Z,962.99
2018-04-12T02:24:32.808Z,962.94
2018-04-12T02:25:32.730Z,962.92
2018-04-12T02:26:32.650Z,962.96
2018-04-12T02:27:32.597Z,962.89
2018-04-12T02:28:32.498Z,962.88
2018-04-12T02:29:32.424Z,962.90
2018-04-12T02:30:32.346Z,962.90
2018-04-12T02:31:32.271Z,962.88
2018-04-12T02:32:32.194Z,962.88
2018-04-12T02:33:32.127Z,962.86
2018-04-12T02:34:32.041Z,962.85
2018-04-12T02:35:31.966Z,962.79
2018-04-12T02:36:31.890Z,962.79
2018-04-12T02:37:31.814Z,962.79
2018-04-12T02:38:31.742Z,962.77
2018-04-12T02:39:31.662Z,962.74
2018-04-12T02:40:31.587Z,962.70
2018-04-12T02:41:31.507Z,962.70
2018-04-12T02:42:31.433Z,962.65
2018-04-12T02:43:31.357Z,962.67
2018-04-12T02:44:31.279Z,962.65
2018-04-12T02:45:31.206Z,962.70
2018-04-12T02:46:31.128Z,962.70
2018-04-12T02:47:31.051Z,962.65
2018-04-12T02:48:30.980Z,962.74
2018-04-12T02:49:30.908Z,962.73
2018-04-12T02:50:30.824Z,962.78
2018-04-12T02:51:30.749Z,962.85
2018-04-12T02:52:30.672Z,962.84
2018-04-12T02:53:30.594Z,962.83
2018-04-12T02:54:30.517Z,962.81
2018-04-12T02:55:30.443Z,962.81
2018-04-12T02:56:30.367Z,962.78
2018-04-12T02:57:30.291Z,962.79
2018-04-12T02:58:30.215Z,962.77
2018-04-12T02:59:30.143Z,962.78
2018-04-12T03:00:30.061Z,962.73
2018-04-12T03:01:29.986Z,962.77
2018-04-12T03:02:29.910Z,962.80
2018-04-12T03:03:29.838Z,962.76
2018-04-12T03:04:29.769Z,962.74
2018-04-12T03:05:29.681Z,962.75
2018-04-12T03:06:29.605Z,962.73
2018-04-12T03:07:29.529Z,962.71
2018-04-12T03:08:29.456Z,962.70
2018-04-12T03:09:29.383Z,962.68
2018-04-12T03:10:29.300Z,962.69
2018-04-12T03:11:29.225Z,962.72
2018-04-12T03:12:29.147Z,962.73
2018-04-12T03:13:29.077Z,962.71
2018-04-12T03:14:29.008Z,962.73
2018-04-12T03:15:28.921Z,962.75
2018-04-12T03:16:28.843Z,962.76
2018-04-12T03:17:28.771Z,962.74
2018-04-12T03:18:28.695Z,962.77
2018-04-12T03:19:28.619Z,962.73
2018-04-12T03:20:28.542Z,962.71
2018-04-12T03:21:28.473Z,962.73
2018-04-12T03:22:28.389Z,962.71
2018-04-12T03:23:28.325Z,962.71
2018-04-12T03:24:28.241Z,962.72
2018-04-12T03:25:28.182Z,962.70
2018-04-12T03:26:28.092Z,962.71
2018-04-12T03:27:28.010Z,962.69
2018-04-12T03:28:27.932Z,962.69
2018-04-12T03:29:27.859Z,962.71
2018-04-12T03:30:27.792Z,962.65
2018-04-12T03:31:27.707Z,962.60
2018-04-12T03:32:27.632Z,962.62
2018-04-12T03:33:27.556Z,962.60
2018-04-12T03:34:27.480Z,962.60
2018-04-12T03:35:27.404Z,962.58
2018-04-12T03:36:27.329Z,962.55
2018-04-12T03:37:27.253Z,962.50
2018-04-12T03:38:27.177Z,962.52
2018-04-12T03:39:27.102Z,962.52
2018-04-12T03:40:27.025Z,962.55
2018-04-12T03:41:26.954Z,962.52
2018-04-12T03:42:26.872Z,962.53
2018-04-12T03:43:26.798Z,962.49
2018-04-12T03:44:27.395Z,962.53
2018-04-12T03:45:26.645Z,962.53
2018-04-12T03:46:26.585Z,962.50
2018-04-12T03:47:26.495Z,962.53
2018-04-12T03:48:26.417Z,962.48
2018-04-12T03:49:26.419Z,962.48
2018-04-12T03:50:26.288Z,962.45
2018-04-12T03:51:26.191Z,962.43
2018-04-12T03:52:26.117Z,962.45
2018-04-12T03:53:26.038Z,962.41
2018-04-12T03:54:25.964Z,962.42
2018-04-12T03:55:25.888Z,962.42
2018-04-12T03:56:25.814Z,962.41
2018-04-12T03:57:25.736Z,962.39
2018-04-12T03:58:25.660Z,962.40
2018-04-12T03:59:25.630Z,962.34
2018-04-12T04:00:25.513Z,962.35
2018-04-12T04:01:25.435Z,962.35
2018-04-12T04:02:25.357Z,962.34
2018-04-12T04:03:25.283Z,962.35
2018-04-12T04:04:25.207Z,962.33
2018-04-12T04:05:25.131Z,962.29
2018-04-12T04:06:25.054Z,962.32
2018-04-12T04:07:25.027Z,962.28
2018-04-12T04:08:24.902Z,962.27
2018-04-12T04:09:24.831Z,962.25
2018-04-12T04:10:24.762Z,962.29
2018-04-12T04:11:24.677Z,962.28
2018-04-12T04:12:24.598Z,962.21
2018-04-12T04:13:24.524Z,962.14
2018-04-12T04:14:24.462Z,962.18
2018-04-12T04:15:24.402Z,962.21
2018-04-12T04:16:24.296Z,962.19
2018-04-12T04:17:24.221Z,962.17
2018-04-12T04:18:24.145Z,962.14
2018-04-12T04:19:24.069Z,962.15
2018-04-12T04:20:23.998Z,962.14
2018-04-12T04:21:23.918Z,962.10
2018-04-12T04:22:23.843Z,962.14
2018-04-12T04:23:23.770Z,962.13
2018-04-12T04:24:23.692Z,962.11
2018-04-12T04:25:23.642Z,962.16
2018-04-12T04:26:23.539Z,962.15
2018-04-12T04:27:23.463Z,962.16
2018-04-12T04:28:23.390Z,962.12
2018-04-12T04:29:23.315Z,962.12
2018-04-12T04:30:23.239Z,962.18
2018-04-12T04:31:23.163Z,962.15
2018-04-12T04:32:23.091Z,962.15
2018-04-12T04:33:23.017Z,962.13
2018-04-12T04:34:22.936Z,962.15
2018-04-12T04:35:22.866Z,962.19
2018-04-12T04:36:22.787Z,962.17
2018-04-12T04:37:22.709Z,962.15
2018-04-12T04:38:22.633Z,962.15
2018-04-12T04:39:22.560Z,962.17
2018-04-12T04:40:22.483Z,962.13
2018-04-12T04:41:22.409Z,962.15
2018-04-12T04:42:22.333Z,962.12
2018-04-12T04:43:22.259Z,962.15
2018-04-12T04:44:22.182Z,962.17
2018-04-12T04:45:22.104Z,962.13
2018-04-12T04:46:22.035Z,962.12
2018-04-12T04:47:21.954Z,962.08
2018-04-12T04:48:21.877Z,962.07
2018-04-12T04:49:21.805Z,962.01
2018-04-12T04:50:21.729Z,962.00
2018-04-12T04:51:21.659Z,961.94
2018-04-12T04:52:21.589Z,961.92
2018-04-12T04:53:21.500Z,961.93
2018-04-12T04:54:21.427Z,961.90
2018-04-12T04:55:21.352Z,961.91
2018-04-12T04:56:21.273Z,961.87
2018-04-12T04:57:21.197Z,961.86
2018-04-12T04:58:21.123Z,961.92
2018-04-12T04:59:21.048Z,961.87
2018-04-12T05:00:20.971Z,961.88
2018-04-12T05:01:20.897Z,961.86
2018-04-12T05:02:20.820Z,961.87
2018-04-12T05:03:20.745Z,961.88
2018-04-12T05:04:20.669Z,961.91
2018-04-12T05:05:20.596Z,961.86
2018-04-12T05:06:20.541Z,961.85
2018-04-12T05:07:20.482Z,961.84
2018-04-12T05:08:20.370Z,961.89
2018-04-12T05:09:20.291Z,961.88
2018-04-12T05:10:20.219Z,961.89
2018-04-12T05:11:20.141Z,961.91
2018-04-12T05:12:20.074Z,961.98
2018-04-12T05:13:20.028Z,961.92
2018-04-12T05:14:19.916Z,961.87
2018-04-12T05:15:19.837Z,961.92
2018-04-12T05:16:19.764Z,961.91
2018-04-12T05:17:19.685Z,961.96
2018-04-12T05:18:19.619Z,961.97
2018-04-12T05:19:19.540Z,961.91
2018-04-12T05:20:19.478Z,961.91
2018-04-12T05:21:19.388Z,961.93
2018-04-12T05:22:19.309Z,961.98
2018-04-12T05:23:19.233Z,961.96
2018-04-12T05:24:19.159Z,961.97
2018-04-12T05:25:19.090Z,961.94
2018-04-12T05:26:19.008Z,962.03
2018-04-12T05:27:18.947Z,961.95
2018-04-12T05:28:18.863Z,961.96
2018-04-12T05:29:18.781Z,962.06
2018-04-12T05:30:18.708Z,962.00
2018-04-12T05:31:18.673Z,962.05
2018-04-12T05:32:18.555Z,962.05
2018-04-12T05:33:18.479Z,962.04
2018-04-12T05:34:18.404Z,962.02
2018-04-12T05:35:18.355Z,962.09
2018-04-12T05:36:18.254Z,962.10
2018-04-12T05:37:18.178Z,962.08
2018-04-12T05:38:18.103Z,962.14
2018-04-12T05:39:18.027Z,962.12
2018-04-12T05:40:17.951Z,962.11
2018-04-12T05:41:17.877Z,962.12
2018-04-12T05:42:18.341Z,962.13
2018-04-12T05:43:17.744Z,962.08
2018-04-12T05:44:17.651Z,962.18
2018-04-12T05:45:17.577Z,962.18
2018-04-12T05:46:17.499Z,962.14
2018-04-12T05:47:17.424Z,962.18
2018-04-12T05:48:17.351Z,962.21
2018-04-12T05:49:17.273Z,962.18
2018-04-12T05:50:17.200Z,962.29
2018-04-12T05:51:17.122Z,962.22
2018-04-12T05:52:17.049Z,962.28
2018-04-12T05:53:16.977Z,962.23
2018-04-12T05:54:16.897Z,962.28
2018-04-12T05:55:16.824Z,962.25
2018-04-12T05:56:16.749Z,962.22
2018-04-12T05:57:16.673Z,962.24
2018-04-12T05:58:16.616Z,962.15
2018-04-12T05:59:16.523Z,962.20
2018-04-12T06:00:16.445Z,962.23
2018-04-12T06:01:16.370Z,962.23
2018-04-12T06:02:16.296Z,962.24
2018-04-12T06:03:16.239Z,962.27
2018-04-12T06:04:16.147Z,962.25
2018-04-12T06:05:16.072Z,962.25
2018-04-12T06:06:15.995Z,962.31
2018-04-12T06:07:15.920Z,962.35
2018-04-12T06:08:15.847Z,962.35
2018-04-12T06:09:15.778Z,962.36
2018-04-12T06:10:15.697Z,962.31
2018-04-12T06:11:15.620Z,962.27
2018-04-12T06:12:15.547Z,962.26
2018-04-12T06:13:15.536Z,962.21
2018-04-12T06:14:16.016Z,962.24
2018-04-12T06:15:15.350Z,962.21
2018-04-12T06:16:15.245Z,962.23
2018-04-12T06:17:15.172Z,962.22
2018-04-12T06:18:15.101Z,962.24
2018-04-12T06:19:15.028Z,962.25
2018-04-12T06:20:14.952Z,962.26
2018-04-12T06:21:14.872Z,962.21
2018-04-12T06:22:14.800Z,962.18
2018-04-12T06:23:14.721Z,962.18
2018-04-12T06:24:14.644Z,962.26
2018-04-12T06:25:14.590Z,962.24
2018-04-12T06:26:14.497Z,962.22
2018-04-12T06:27:14.421Z,962.22
2018-04-12T06:28:14.361Z,962.21
2018-04-12T06:29:14.285Z,962.13
2018-04-12T06:30:14.250Z,962.21
2018-04-12T06:31:14.126Z,962.18
2018-04-12T06:32:14.047Z,962.14
2018-04-12T06:33:13.972Z,962.15
2018-04-12T06:34:13.897Z,962.12
2018-04-12T06:35:13.821Z,962.11
2018-04-12T06:36:13.748Z,962.12
2018-04-12T06:37:13.671Z,962.17
2018-04-12T06:38:13.597Z,962.10
2018-04-12T06:39:13.522Z,962.10
2018-04-12T06:40:13.448Z,962.07
2018-04-12T06:41:13.372Z,962.13
2018-04-12T06:42:13.304Z,962.14
2018-04-12T06:43:13.232Z,962.16
2018-04-12T06:44:13.155Z,962.19
2018-04-12T06:45:13.076Z,962.19
2018-04-12T06:46:12.998Z,962.21
2018-04-12T06:47:12.926Z,962.20
2018-04-12T06:48:12.869Z,962.20
2018-04-12T06:49:12.780Z,962.19
2018-04-12T06:50:12.701Z,962.22
2018-04-12T06:51:12.626Z,962.22
2018-04-12T06:52:12.551Z,962.18
2018-04-12T06:53:12.478Z,962.10
2018-04-12T06:54:12.404Z,962.10
2018-04-12T06:55:12.327Z,962.07
2018-04-12T06:56:12.264Z,962.12
2018-04-12T06:57:12.177Z,962.04
2018-04-12T06:58:12.121Z,962.02
2018-04-12T06:59:12.032Z,962.08
2018-04-12T07:00:11.957Z,962.02
2018-04-12T07:01:11.884Z,962.08
2018-04-12T07:02:11.807Z,962.13
2018-04-12T07:03:11.778Z,962.14
2018-04-12T07:04:11.656Z,962.09
2018-04-12T07:05:11.581Z,962.10
2018-04-12T07:06:11.506Z,962.17
2018-04-12T07:07:11.436Z,962.22
2018-04-12T07:08:11.362Z,962.19
2018-04-12T07:09:11.283Z,962.20
2018-04-12T07:10:11.212Z,962.29
2018-04-12T07:11:11.139Z,962.33
2018-04-12T07:12:11.064Z,962.36
2018-04-12T07:13:11.003Z,962.35
2018-04-12T07:14:10.911Z,962.34
2018-04-12T07:15:10.837Z,962.34
2018-04-12T07:16:10.768Z,962.30
2018-04-12T07:17:10.688Z,962.30
2018-04-12T07:18:10.629Z,962.31
2018-04-12T07:19:10.550Z,962.33
2018-04-12T07:20:10.464Z,962.38
2018-04-12T07:21:10.390Z,962.36
2018-04-12T07:22:10.341Z,962.44
2018-04-12T07:23:10.244Z,962.49
2018-04-12T07:24:10.168Z,962.53
2018-04-12T07:25:10.095Z,962.51
2018-04-12T07:26:10.021Z,962.47
2018-04-12T07:27:09.961Z,962.43
2018-04-12T07:28:09.869Z,962.42
2018-04-12T07:29:09.797Z,962.44
2018-04-12T07:30:09.763Z,962.36
2018-04-12T07:31:09.654Z,962.39
2018-04-12T07:32:09.585Z,962.43
2018-04-12T07:33:09.502Z,962.40
2018-04-12T07:34:09.425Z,962.42
2018-04-12T07:35:09.406Z,962.44
2018-04-12T07:36:09.277Z,962.39
2018-04-12T07:37:09.217Z,962.52
2018-04-12T07:38:09.131Z,962.56
2018-04-12T07:39:09.057Z,962.55
2018-04-12T07:40:08.986Z,962.59
2018-04-12T07:41:08.914Z,962.61
2018-04-12T07:42:08.836Z,962.61
2018-04-12T07:43:08.762Z,962.66
2018-04-12T07:44:08.687Z,962.64
2018-04-12T07:45:08.628Z,962.47
2018-04-12T07:46:08.558Z,962.53
2018-04-12T07:47:08.465Z,962.47
2018-04-12T07:48:08.391Z,962.49
2018-04-12T07:49:08.320Z,962.44
2018-04-12T07:50:08.261Z,962.51
2018-04-12T07:51:08.172Z,962.49
2018-04-12T07:52:08.099Z,962.49
2018-04-12T07:53:08.024Z,962.61
2018-04-12T07:54:07.952Z,962.64
2018-04-12T07:55:07.883Z,962.64
2018-04-12T07:56:07.805Z,962.69
2018-04-12T07:57:07.730Z,962.69
2018-04-12T07:58:07.656Z,962.74
2018-04-12T07:59:07.583Z,962.79
2018-04-12T08:00:07.518Z,962.80
2018-04-12T08:01:07.436Z,962.73
2018-04-12T08:02:07.418Z,962.66
2018-04-12T08:03:07.294Z,962.73
2018-04-12T08:04:07.217Z,962.64
2018-04-12T08:05:07.142Z,962.73
2018-04-12T08:06:07.069Z,962.76
2018-04-12T08:07:06.997Z,962.82
2018-04-12T08:08:06.923Z,962.79
2018-04-12T08:09:06.857Z,962.84
2018-04-12T08:10:06.776Z,962.80
2018-04-12T08:11:06.703Z,962.82
2018-04-12T08:12:06.631Z,962.80
2018-04-12T08:13:06.557Z,962.82
2018-04-12T08:14:06.483Z,962.83
2018-04-12T08:15:06.413Z,962.83
2018-04-12T08:16:06.335Z,962.80
2018-04-12T08:17:06.265Z,962.80
2018-04-12T08:18:06.219Z,962.82
2018-04-12T08:19:06.123Z,962.87
2018-04-12T08:20:06.045Z,962.82
2018-04-12T08:21:05.979Z,962.78
2018-04-12T08:22:05.903Z,962.80
2018-04-12T08:23:05.829Z,962.80
2018-04-12T08:24:05.753Z,962.84
2018-04-12T08:25:05.686Z,962.80
2018-04-12T08:26:05.610Z,962.84
2018-04-12T08:27:05.540Z,962.84
2018-04-12T08:28:05.464Z,962.89
2018-04-12T08:29:05.389Z,962.91
2018-04-12T08:30:05.319Z,962.95
2018-04-12T08:31:05.247Z,963.00
2018-04-12T08:32:05.174Z,963.05
2018-04-12T08:33:05.105Z,963.19
2018-04-12T08:34:05.038Z,963.24
2018-04-12T08:35:04.956Z,963.23
2018-04-12T08:36:04.895Z,963.22
2018-04-12T08:37:04.815Z,963.20
2018-04-12T08:38:04.751Z,963.16
2018-04-12T08:39:04.666Z,963.18
2018-04-12T08:40:04.594Z,963.13
2018-04-12T08:41:04.572Z,963.07
2018-04-12T08:42:04.450Z,963.10
2018-04-12T08:43:04.380Z,963.12
2018-04-12T08:44:04.302Z,963.10
2018-04-12T08:45:04.234Z,963.08
2018-04-12T08:46:04.158Z,963.10
2018-04-12T08:47:04.087Z,963.07
2018-04-12T08:48:04.013Z,963.09
2018-04-12T08:49:03.950Z,963.13
2018-04-12T08:50:03.872Z,963.07
2018-04-12T08:51:03.797Z,963.14
2018-04-12T08:52:03.786Z,963.10
2018-04-12T08:53:03.652Z,963.11
2018-04-12T08:54:03.579Z,963.13
2018-04-12T08:55:03.521Z,963.06
2018-04-12T08:56:03.440Z,963.11
2018-04-12T08:57:03.362Z,963.07
2018-04-12T08:58:03.311Z,963.15
2018-04-12T08:59:03.219Z,962.97
2018-04-12T09:00:03.147Z,963.13
2018-04-12T09:01:03.078Z,962.98
2018-04-12T09:02:03.001Z,963.02
2018-04-12T09:03:02.932Z,963.03
2018-04-12T09:04:02.856Z,963.04
2018-04-12T09:05:02.790Z,963.03
2018-04-12T09:06:02.710Z,963.05
2018-04-12T09:07:02.636Z,963.01
2018-04-12T09:08:02.570Z,963.03
2018-04-12T09:09:02.504Z,963.07
2018-04-12T09:10:02.421Z,963.08
2018-04-12T09:11:02.362Z,963.05
2018-04-12T09:12:02.277Z,963.07
2018-04-12T09:13:02.227Z,963.08
2018-04-12T09:14:02.133Z,963.02
2018-04-12T09:15:02.062Z,963.07
2018-04-12T09:16:02.034Z,963.08
2018-04-12T09:17:01.918Z,963.09
2018-04-12T09:18:01.901Z,963.08
2018-04-12T09:19:01.773Z,963.03
2018-04-12T09:20:01.701Z,963.13
2018-04-12T09:21:01.628Z,963.10
2018-04-12T09:22:01.558Z,963.14
2018-04-12T09:23:01.488Z,963.19
2018-04-12T09:24:01.414Z,963.17
2018-04-12T09:25:01.351Z,963.12
2018-04-12T09:26:01.278Z,963.15
2018-04-12T09:27:01.201Z,963.12
2018-04-12T09:28:01.130Z,963.12
2018-04-12T09:29:01.058Z,963.12
2018-04-12T09:30:00.988Z,963.15
2018-04-12T09:31:00.916Z,963.09
2018-04-12T09:32:00.844Z,963.12
2018-04-12T09:33:00.773Z,963.13
2018-04-12T09:34:00.702Z,963.14
2018-04-12T09:35:00.632Z,963.19
2018-04-12T09:36:00.559Z,963.17
2018-04-12T09:37:00.497Z,963.18
2018-04-12T09:38:00.423Z,963.16
2018-04-12T09:39:00.352Z,963.18
2018-04-12T09:40:00.274Z,963.13
2018-04-12T09:41:00.225Z,963.05
2018-04-12T09:42:00.135Z,963.04
2018-04-12T09:43:00.065Z,963.05
2018-04-12T09:43:59.992Z,963.01
2018-04-12T09:44:59.922Z,963.02
2018-04-12T09:45:59.867Z,963.00
2018-04-12T09:46:59.792Z,963.04
2018-04-12T09:47:59.711Z,963.07
2018-04-12T09:48:59.646Z,963.05
2018-04-12T09:49:59.572Z,963.08
2018-04-12T09:50:59.501Z,963.12
2018-04-12T09:51:59.498Z,963.11
2018-04-12T09:52:59.360Z,963.15
2018-04-12T09:53:59.292Z,963.15
2018-04-12T09:54:59.222Z,963.19
2018-04-12T09:55:59.146Z,963.15
2018-04-12T09:56:59.078Z,963.17
2018-04-12T09:57:59.014Z,963.15
2018-04-12T09:58:58.937Z,963.15
2018-04-12T09:59:58.906Z,963.14
2018-04-12T10:00:58.796Z,963.14
2018-04-12T10:01:58.726Z,963.12
2018-04-12T10:02:58.656Z,963.10
2018-04-12T10:03:58.587Z,963.14
2018-04-12T10:04:58.565Z,963.17
2018-04-12T10:05:58.446Z,963.08
2018-04-12T10:06:58.385Z,963.18
2018-04-12T10:07:58.308Z,963.17
2018-04-12T10:08:58.287Z,963.17
2018-04-12T10:09:58.164Z,963.24
2018-04-12T10:10:58.102Z,963.30
2018-04-12T10:11:58.025Z,963.26
2018-04-12T10:12:57.953Z,963.28
2018-04-12T10:13:57.884Z,963.30
2018-04-12T10:14:57.815Z,963.26
2018-04-12T10:15:57.745Z,963.34
2018-04-12T10:16:57.748Z,963.33
2018-04-12T10:17:57.603Z,963.33
2018-04-12T10:18:57.542Z,963.36
2018-04-12T10:19:57.470Z,963.31
2018-04-12T10:20:57.442Z,963.28
2018-04-12T10:21:57.335Z,963.27
2018-04-12T10:22:57.320Z,963.28
2018-04-12T10:23:57.186Z,963.23
2018-04-12T10:24:57.116Z,963.27
2018-04-12T10:25:57.051Z,963.31
2018-04-12T10:26:56.982Z,963.34
2018-04-12T10:27:56.924Z,963.31
2018-04-12T10:28:56.839Z,963.33
2018-04-12T10:29:56.771Z,963.34
2018-04-12T10:30:56.701Z,963.32
2018-04-12T10:31:56.630Z,963.31
2018-04-12T10:32:56.562Z,963.36
2018-04-12T10:33:56.495Z,963.43
2018-04-12T10:34:56.427Z,963.45
2018-04-12T10:35:56.358Z,963.46
2018-04-12T10:36:56.299Z,963.49
2018-04-12T10:37:56.220Z,963.53
2018-04-12T10:38:56.232Z,963.51
2018-04-12T10:39:56.079Z,963.50
2018-04-12T10:40:56.010Z,963.49
2018-04-12T10:41:55.956Z,963.51
2018-04-12T10:42:55.875Z,963.50
2018-04-12T10:43:55.803Z,963.45
2018-04-12T10:44:55.736Z,963.47
2018-04-12T10:45:55.670Z,963.48
2018-04-12T10:46:55.598Z,963.49
2018-04-12T10:47:55.585Z,963.47
2018-04-12T10:48:55.466Z,963.50
2018-04-12T10:49:55.395Z,963.56
2018-04-12T10:50:55.322Z,963.60
2018-04-12T10:51:55.310Z,963.49
2018-04-12T10:52:55.182Z,963.57
2018-04-12T10:53:55.115Z,963.52
2018-04-12T10:54:55.048Z,963.52
2018-04-12T10:55:54.989Z,963.48
2018-04-12T10:56:54.912Z,963.49
2018-04-12T10:57:54.841Z,963.47
2018-04-12T10:58:54.772Z,963.56
2018-04-12T10:59:54.703Z,963.56
2018-04-12T11:00:54.634Z,963.69
2018-04-12T11:01:54.565Z,963.71
2018-04-12T11:02:54.500Z,963.80
2018-04-12T11:03:54.431Z,963.81
2018-04-12T11:04:54.412Z,963.82
2018-04-12T11:05:54.305Z,963.77
2018-04-12T11:06:54.249Z,963.69
2018-04-12T11:07:54.238Z,963.63
2018-04-12T11:08:54.458Z,963.64
2018-04-12T11:09:54.022Z,963.66
2018-04-12T11:10:53.952Z,963.62
2018-04-12T11:11:53.903Z,963.65
2018-04-12T11:12:53.816Z,963.60
2018-04-12T11:13:53.776Z,963.53
2018-04-12T11:14:53.681Z,963.52
2018-04-12T11:15:53.613Z,963.51
2018-04-12T11:16:53.542Z,963.44
2018-04-12T11:17:53.476Z,963.53
2018-04-12T11:18:53.406Z,963.46
2018-04-12T11:19:53.349Z,963.47
2018-04-12T11:20:53.270Z,963.45
2018-04-12T11:21:53.209Z,963.52
2018-04-12T11:22:53.134Z,963.49
2018-04-12T11:23:53.070Z,963.63
2018-04-12T11:24:53.018Z,963.52
2018-04-12T11:25:52.935Z,963.54
2018-04-12T11:26:52.862Z,963.58
2018-04-12T11:27:52.794Z,963.50
2018-04-12T11:28:52.726Z,963.57
2018-04-12T11:29:52.683Z,963.52
2018-04-12T11:30:52.590Z,963.51
2018-04-12T11:31:52.522Z,963.58
2018-04-12T11:32:52.459Z,963.53
2018-04-12T11:33:52.389Z,963.59
2018-04-12T11:34:52.328Z,963.58
2018-04-12T11:35:52.252Z,963.57
2018-04-12T11:36:52.185Z,963.61
2018-04-12T11:37:52.115Z,963.57
2018-04-12T11:38:52.047Z,963.56
2018-04-12T11:39:51.993Z,963.59
2018-04-12T11:40:51.926Z,963.59
2018-04-12T11:41:51.843Z,963.52
2018-04-12T11:42:51.838Z,963.58
2018-04-12T11:43:51.709Z,963.53
2018-04-12T11:44:51.654Z,963.51
2018-04-12T11:45:51.575Z,963.48
2018-04-12T11:46:51.530Z,963.51
2018-04-12T11:47:51.455Z,963.46
2018-04-12T11:48:51.371Z,963.47
2018-04-12T11:49:51.335Z,963.47
2018-04-12T11:50:51.264Z,963.52
2018-04-12T11:51:51.209Z,963.45
2018-04-12T11:52:51.152Z,963.49
2018-04-12T11:53:51.031Z,963.46
2018-04-12T11:54:50.964Z,963.48
2018-04-12T11:55:50.921Z,963.46
2018-04-12T11:56:50.833Z,963.48
2018-04-12T11:57:50.763Z,963.49
2018-04-12T11:58:50.694Z,963.50
2018-04-12T11:59:50.625Z,963.48
2018-04-12T12:00:50.561Z,963.41
2018-04-12T12:01:50.500Z,963.47
2018-04-12T12:02:50.421Z,963.47
2018-04-12T12:03:50.350Z,963.47
2018-04-12T12:04:50.285Z,963.53
2018-04-12T12:05:50.216Z,963.57
2018-04-12T12:06:50.152Z,963.49
2018-04-12T12:07:50.080Z,963.54
2018-04-12T12:08:50.012Z,963.53
2018-04-12T12:09:49.942Z,963.51
2018-04-12T12:10:49.871Z,963.57
2018-04-12T12:11:49.805Z,963.57
2018-04-12T12:12:49.733Z,963.62
2018-04-12T12:13:49.669Z,963.71
2018-04-12T12:14:49.598Z,963.62
2018-04-12T12:15:49.529Z,963.67
2018-04-12T12:16:49.463Z,963.66
2018-04-12T12:17:49.444Z,963.66
2018-04-12T12:18:49.325Z,963.57
2018-04-12T12:19:49.259Z,963.63
2018-04-12T12:20:49.191Z,963.66
2018-04-12T12:21:49.119Z,963.66
2018-04-12T12:22:49.054Z,963.61
2018-04-12T12:23:49.082Z,963.66
2018-04-12T12:24:48.914Z,963.72
2018-04-12T12:25:48.848Z,963.75
2018-04-12T12:26:48.782Z,963.73
2018-04-12T12:27:48.717Z,963.72